Impacts METAR Board
IDs:

KSSF - San Antonio/Stinson, TX, US

Updated at: 0000 UTC 19 Oct 2019
Potential Impact None Slight Moderate High
Time 18/12Z 18/13Z 18/14Z 18/15Z 18/16Z 18/17Z 18/18Z 18/19Z 18/20Z 18/21Z 18/22Z 18/23Z 19/00Z
Temp55 54 60 64 68 72 74 77 80 82 82 81 76
Dewpt48 50 50 49 45 42 49 52 53 56 56 56 58
Altim29.88 29.88 29.88 29.88 29.87 29.85 29.82 29.78 29.74 29.72 29.71 29.70 29.70
VIS10 10 10 10 10 10 10 10 10 10 10 10 10
CIG-- -- -- -- -- -- -- -- -- -- -- -- --
CoverCLRCLRCLRCLRCLRCLRCLRCLRCLRCLRCLRCLRCLR
FltCatVFRVFRVFRVFRVFRVFRVFRVFRVFRVFRVFRVFRVFR
WX--------------------------
WDir0350070130130001902000160140
WSpd0 3 0 3 5 5 5 0 3 5 3 6 5
WGst-- -- -- -- -- -- -- -- -- -- -- -- --
Raw hourly METARs
KSSF 181153Z 00000KT 10SM CLR 13/09 A2988 RMK AO2 SLP114 T01280089 10150 20122 53001
KSSF 181253Z 35003KT 10SM CLR 12/10 A2988 RMK AO2 SLP115 T01220100
KSSF 181353Z 00000KT 10SM CLR 16/10 A2988 RMK AO2 SLP113 T01560100
KSSF 181453Z 07003KT 10SM CLR 18/09 A2988 RMK AO2 SLP113 T01780094 57001
KSSF 181553Z 13005KT 10SM CLR 20/07 A2987 RMK AO2 SLP110 T02000072
KSSF 181653Z 13005KT 10SM CLR 22/06 A2985 RMK AO2 SLP103 T02220056
KSSF 181753Z VRB05KT 10SM CLR 23/09 A2982 RMK AO2 SLP091 T02330094 10239 20117 58020
KSSF 181853Z 00000KT 10SM CLR 25/11 A2978 RMK AO2 SLP080 T02500111
KSSF 181953Z 19003KT 10SM CLR 27/12 A2974 RMK AO2 SLP065 T02670117
KSSF 182053Z 20005KT 10SM CLR 28/13 A2972 RMK AO2 SLP057 T02780133 56031
KSSF 182153Z VRB03KT 10SM CLR 28/13 A2971 RMK AO2 SLP054 T02780133
KSSF 182253Z 16006KT 10SM CLR 27/13 A2970 RMK AO2 SLP050 T02720133
KSSF 182353Z 14005KT 10SM CLR 24/14 A2970 RMK AO2 SLP050 T02440144 10278 20239 56009